Time;durP1;ratioP1;P1;durP2;ratioP2;P2;SDS_P1;SDS_P2;PMS_P1;PMS_P2;Temp;Humidity;BMP_temperature;BMP_pressure;BME280_temperature;BME280_humidity;BME280_pressure;Samples;Min_cycle;Max_cycle;Signal;HPM_P1;HPM_P2
2023/01/02 02:17:52;;;;;;;4.60;1.60;;;;;;;14.90;50.85;99926.53;1088901;54;20021;-89
2023/01/02 02:24:04;;;;;;;5.63;2.03;;;;;;;14.82;50.76;99914.78;1089099;54;20014;-89
2023/01/02 05:46:26;;;;;;;4.03;1.45;;;;;;;14.48;49.60;99882.78;1088062;54;20026;-84
2023/01/02 05:47:27;;;;;;;4.30;1.58;;;;;;;14.47;49.84;99875.72;1087881;54;20034;-84
2023/01/02 05:48:31;;;;;;;4.00;1.70;;;;;;;14.49;49.91;99889.84;1087785;54;20030;-82
2023/01/02 05:49:33;;;;;;;4.00;1.88;;;;;;;14.54;49.66;99881.25;1087710;54;20046;-85
2023/01/02 05:50:37;;;;;;;4.15;1.90;;;;;;;14.46;49.86;99882.13;1087690;54;20038;-84
2023/01/02 05:51:38;;;;;;;4.85;1.67;;;;;;;14.39;50.06;99883.84;1087730;54;20416;-83
2023/01/02 05:52:43;;;;;;;4.43;1.60;;;;;;;14.40;50.02;99880.97;1087668;54;20045;-82
2023/01/02 05:53:44;;;;;;;5.53;1.70;;;;;;;14.38;50.31;99887.53;1087658;54;20838;-83
2023/01/02 05:54:49;;;;;;;4.18;1.70;;;;;;;14.43;50.01;99882.47;1087674;54;20034;-84
2023/01/02 05:55:51;;;;;;;4.97;1.60;;;;;;;14.33;50.45;99888.88;1087642;54;20742;-83
2023/01/02 05:56:57;;;;;;;5.47;2.00;;;;;;;14.29;50.18;99892.09;1087680;54;20880;-84
2023/01/02 05:58:01;;;;;;;6.03;1.60;;;;;;;14.22;50.33;99889.25;1087612;54;20039;-83
2023/01/02 05:59:09;;;;;;;4.82;1.52;;;;;;;14.34;50.23;99881.66;1087729;54;20030;-84
2023/01/02 06:00:13;;;;;;;7.82;1.90;;;;;;;14.35;50.31;99883.34;1087763;54;20031;-83
2023/01/02 06:01:20;;;;;;;4.13;1.70;;;;;;;14.31;50.19;99890.06;1087644;54;20035;-82
2023/01/02 06:02:24;;;;;;;5.68;1.77;;;;;;;14.40;49.82;99894.41;1087666;54;20035;-82
2023/01/02 06:03:28;;;;;;;4.80;1.73;;;;;;;14.35;50.23;99888.72;1087800;54;20035;-83
2023/01/02 06:04:30;;;;;;;5.60;1.80;;;;;;;14.39;50.48;99887.34;1087851;54;20053;-82
2023/01/02 06:29:05;;;;;;;6.22;1.85;;;;;;;14.38;50.47;99904.50;1088838;39;20804;-83
2023/01/02 06:30:08;;;;;;;4.75;1.20;;;;;;;14.43;50.50;99902.13;1088090;54;20023;-84
2023/01/02 06:31:14;;;;;;;4.25;1.95;;;;;;;14.37;50.73;99900.13;1087933;54;20063;-84
2023/01/02 06:32:19;;;;;;;4.18;1.60;;;;;;;14.36;50.58;99906.50;1087991;54;20038;-83
2023/01/02 06:33:21;;;;;;;4.78;1.60;;;;;;;14.32;50.70;99899.81;1091345;39;21092;-84
2023/01/02 06:36:39;;;;;;;8.95;1.98;;;;;;;14.39;50.57;99908.88;1088300;54;20014;-84
2023/01/02 06:41:10;;;;;;;3.30;1.30;;;;;;;14.41;50.19;99908.69;1088057;54;20031;-84
2023/01/02 06:42:12;;;;;;;3.75;1.63;;;;;;;14.43;50.36;99906.66;1088179;54;20025;-83
2023/01/02 06:43:16;;;;;;;4.45;1.52;;;;;;;14.42;50.26;99913.91;1087966;54;20041;-84
2023/01/02 06:44:23;;;;;;;3.42;1.40;;;;;;;14.43;49.90;99912.91;1088185;54;20038;-84
2023/01/02 06:45:25;;;;;;;4.57;1.90;;;;;;;14.31;50.51;99912.41;1087712;54;20038;-82
2023/01/02 06:46:29;;;;;;;4.07;1.65;;;;;;;14.27;50.23;99915.59;1087709;54;20034;-83
2023/01/02 06:47:30;;;;;;;3.80;1.40;;;;;;;14.32;50.21;99910.56;1087739;54;20034;-83
2023/01/02 06:50:50;;;;;;;5.32;1.60;;;;;;;14.32;50.24;99921.31;1087757;54;20018;-86
2023/01/02 07:31:57;;;;;;;5.75;2.72;;;;;;;13.45;53.84;99973.75;1088163;54;20026;-83
2023/01/02 07:32:58;;;;;;;6.10;2.63;;;;;;;13.46;53.39;99975.44;1088001;54;20086;-84
2023/01/02 07:34:05;;;;;;;6.30;2.38;;;;;;;13.48;53.43;99977.97;1088257;54;20030;-84
2023/01/02 07:46:50;;;;;;;4.95;2.15;;;;;;;13.49;53.68;100001.97;1089081;39;21185;-83
2023/01/02 07:47:54;;;;;;;5.30;1.90;;;;;;;13.50;53.29;100002.81;1087895;54;20023;-85
2023/01/02 07:49:00;;;;;;;4.88;2.00;;;;;;;13.50;53.51;100006.34;1088066;54;20802;-84
2023/01/02 07:54:47;;;;;;;4.97;1.67;;;;;;;13.51;53.34;100013.38;1085960;54;20087;-80
2023/01/02 07:56:08;;;;;;;4.28;1.83;;;;;;;13.51;52.96;100012.56;1086293;54;20047;-85
2023/01/02 07:57:09;;;;;;;5.72;2.47;;;;;;;13.47;53.26;100014.72;1089049;47;20059;-81
2023/01/02 07:58:18;;;;;;;6.82;2.45;;;;;;;13.43;53.47;100016.03;1088086;47;20061;-81
2023/01/02 07:59:22;;;;;;;4.38;1.92;;;;;;;13.38;53.53;100021.06;1087463;54;20038;-80
2023/01/02 08:00:24;;;;;;;10.23;3.58;;;;;;;13.37;53.74;100030.94;1087082;54;20043;-83
2023/01/02 08:01:29;;;;;;;7.43;2.90;;;;;;;13.29;54.32;100038.13;1087310;54;20045;-84
2023/01/02 08:06:04;;;;;;;5.93;2.80;;;;;;;13.03;55.12;100033.69;1087377;54;20030;-83
2023/01/02 08:07:12;;;;;;;;;;;;;;;12.84;55.74;100038.28;1087763;54;20035;-83
2023/01/02 08:08:15;;;;;;;9.40;4.15;;;;;;;12.79;55.79;100038.78;1089152;47;19950;-81
2023/01/02 08:09:20;;;;;;;10.13;4.05;;;;;;;12.77;56.29;100046.13;1088847;47;20054;-80
2023/01/02 08:10:53;;;;;;;9.30;4.43;;;;;;;12.59;57.45;100042.66;1092106;47;20031;-84
2023/01/02 08:14:07;;;;;;;9.18;5.13;;;;;;;12.23;59.08;100057.00;1087518;54;20065;-83
2023/01/02 08:15:17;;;;;;;12.90;5.85;;;;;;;12.22;59.17;100047.25;1087524;54;20035;-83
2023/01/02 08:16:26;;;;;;;16.02;6.72;;;;;;;12.16;59.58;100050.56;1088152;47;20042;-83
2023/01/02 08:21:08;;;;;;;10.82;6.07;;;;;;;11.92;60.79;100057.34;1087336;54;20026;-84
2023/01/02 08:27:32;;;;;;;;;;;;;;;;;;;;;
2023/01/02 08:30:26;;;;;;;14.65;6.90;;;;;;;11.49;62.11;100064.28;1087004;54;20030;-81
2023/01/02 08:31:30;;;;;;;22.92;7.50;;;;;;;11.52;62.20;100062.16;1088106;47;20034;-80
2023/01/02 08:32:38;;;;;;;14.05;7.50;;;;;;;11.54;62.35;100059.31;1087768;47;20034;-80
2023/01/02 08:33:43;;;;;;;12.32;6.82;;;;;;;11.57;61.82;100072.41;1087138;54;20038;-81
2023/01/02 08:34:55;;;;;;;12.13;6.28;;;;;;;11.63;62.03;100063.75;1087097;54;20026;-81
2023/01/02 08:35:59;;;;;;;10.90;5.68;;;;;;;11.68;61.49;100064.16;1086947;54;20102;-80
2023/01/02 08:37:03;;;;;;;9.43;5.70;;;;;;;11.69;61.48;100065.84;1087041;54;20110;-80
2023/01/02 08:38:05;;;;;;;12.40;5.95;;;;;;;11.71;61.59;100071.88;1086960;54;20039;-81
2023/01/02 08:39:09;;;;;;;11.32;5.72;;;;;;;11.76;61.35;100074.09;1090952;39;20950;-80
2023/01/02 08:40:14;;;;;;;9.73;5.28;;;;;;;11.85;61.13;100080.41;1086842;54;20031;-80
2023/01/02 08:41:31;;;;;;;12.98;5.95;;;;;;;11.77;62.04;100091.88;1086886;54;20035;-79
2023/01/02 08:42:38;;;;;;;10.85;5.82;;;;;;;11.82;61.70;100096.75;1088362;39;21185;-84
2023/01/02 08:43:42;;;;;;;10.55;5.85;;;;;;;11.85;61.34;100083.06;1089436;39;20769;-84
2023/01/02 08:44:44;;;;;;;13.80;5.65;;;;;;;11.84;61.28;100087.59;1087107;54;20049;-82
2023/01/02 08:45:48;;;;;;;10.65;5.78;;;;;;;11.89;61.21;100089.81;1087039;54;20027;-84
2023/01/02 08:46:57;;;;;;;11.20;5.45;;;;;;;11.96;61.20;100082.00;1086542;54;20038;-83
2023/01/02 08:48:01;;;;;;;12.20;6.07;;;;;;;11.97;61.36;100081.91;1087489;47;20030;-83
2023/01/02 08:50:41;;;;;;;14.27;6.60;;;;;;;11.92;62.10;100092.19;1086468;54;20406;-82
2023/01/02 08:51:49;;;;;;;10.70;6.38;;;;;;;11.98;61.50;100083.59;1086937;47;20039;-79
2023/01/02 08:53:02;;;;;;;12.95;6.00;;;;;;;12.06;61.57;100090.00;1087049;47;20056;-80
2023/01/02 08:54:04;;;;;;;9.50;6.20;;;;;;;12.11;61.23;100088.56;1087751;47;20078;-81
2023/01/02 08:55:09;;;;;;;14.48;5.90;;;;;;;12.09;61.34;100079.00;1087083;54;20031;-80
2023/01/02 08:56:24;;;;;;;14.27;8.02;;;;;;;12.01;62.27;100079.75;1086901;54;20030;-81
2023/01/02 08:57:28;;;;;;;10.65;6.00;;;;;;;12.09;61.49;100076.31;1086796;54;20038;-81
2023/01/02 08:58:35;;;;;;;11.55;6.18;;;;;;;12.14;61.53;100084.72;1086986;54;20034;-84
2023/01/02 08:59:39;;;;;;;11.77;7.07;;;;;;;12.14;61.47;100074.81;1086994;54;20208;-81
2023/01/02 09:00:45;;;;;;;16.05;6.47;;;;;;;12.17;61.75;100077.22;1086902;54;20062;-82
2023/01/02 09:02:13;;;;;;;12.27;6.45;;;;;;;12.12;62.14;100073.31;1086984;54;20522;-83
2023/01/02 09:03:26;;;;;;;12.82;6.85;;;;;;;12.07;62.20;100067.59;1087007;54;20057;-82
2023/01/02 09:04:41;;;;;;;11.63;6.53;;;;;;;11.97;62.42;100076.53;1086989;54;20051;-80
2023/01/02 09:05:45;;;;;;;13.15;6.93;;;;;;;12.04;62.00;100082.13;1086993;54;20169;-81
2023/01/02 09:06:51;;;;;;;12.88;6.22;;;;;;;12.10;61.85;100086.00;1086964;54;20046;-81
2023/01/02 09:07:58;;;;;;;13.02;6.47;;;;;;;12.16;61.79;100088.09;1086886;54;20037;-82
2023/01/02 09:09:00;;;;;;;12.38;6.78;;;;;;;12.08;62.15;100080.81;1086924;54;20038;-79
2023/01/02 09:10:05;;;;;;;14.57;6.88;;;;;;;12.11;62.11;100071.63;1087027;47;20531;-82
2023/01/02 09:11:11;;;;;;;10.25;6.28;;;;;;;12.07;62.07;100080.97;1086964;54;20031;-81
2023/01/02 09:12:51;;;;;;;12.20;5.85;;;;;;;12.19;61.95;100092.28;1087049;54;20042;-84
2023/01/02 09:14:11;;;;;;;10.30;6.30;;;;;;;12.23;61.42;100089.16;1087153;54;20079;-82
2023/01/02 09:15:19;;;;;;;16.38;6.90;;;;;;;12.20;61.48;100091.31;1087055;54;20030;-81
2023/01/02 09:16:21;;;;;;;9.38;5.53;;;;;;;12.35;61.23;100086.22;1087187;54;20038;-80
2023/01/02 09:18:27;;;;;;;9.18;4.97;;;;;;;12.54;60.55;100096.78;1089386;39;20700;-83
2023/01/02 09:19:31;;;;;;;7.70;4.53;;;;;;;12.60;60.70;100098.81;1087362;54;20038;-85
2023/01/02 09:20:33;;;;;;;9.68;5.07;;;;;;;12.63;60.39;100101.19;1087862;54;21285;-85
2023/01/02 09:22:02;;;;;;;9.00;5.13;;;;;;;12.67;60.44;100104.41;1087854;54;20061;-80
2023/01/02 09:23:19;;;;;;;14.50;7.53;;;;;;;12.60;60.90;100096.13;1087707;54;20034;-78
2023/01/02 09:24:26;;;;;;;9.38;5.50;;;;;;;12.66;60.80;100101.88;1087553;54;20039;-81
2023/01/02 09:25:35;;;;;;;9.18;6.32;;;;;;;12.62;61.18;100107.56;1087681;54;20058;-81
2023/01/02 09:28:01;;;;;;;11.52;6.80;;;;;;;12.75;60.62;100117.03;1086755;54;20069;-81
2023/01/02 09:29:29;;;;;;;15.10;6.68;;;;;;;12.79;60.57;100113.03;1087243;54;21420;-81
2023/01/02 09:30:45;;;;;;;12.50;6.35;;;;;;;12.72;60.20;100117.34;1087693;54;20042;-79
2023/01/02 09:33:32;;;;;;;11.18;6.18;;;;;;;12.92;60.18;100124.19;1087352;54;20030;-80
2023/01/02 09:34:49;;;;;;;9.43;5.70;;;;;;;13.04;59.79;100127.44;1087171;54;20068;-80
2023/01/02 09:36:06;;;;;;;10.45;5.32;;;;;;;13.21;59.15;100125.69;1087281;54;20044;-79
2023/01/02 09:37:13;;;;;;;8.98;5.35;;;;;;;13.33;58.83;100130.75;1087338;54;20045;-80
2023/01/02 09:38:37;;;;;;;8.20;4.90;;;;;;;13.53;58.25;100131.41;1087261;54;20074;-78
2023/01/02 09:40:00;;;;;;;9.18;4.53;;;;;;;13.74;58.15;100136.34;1087289;54;20042;-78
2023/01/02 09:41:22;;;;;;;11.68;5.65;;;;;;;13.97;57.35;100120.44;1087330;54;20018;-78
2023/01/02 09:42:28;;;;;;;10.60;5.45;;;;;;;14.22;57.00;100125.81;1088720;46;20027;-77
2023/01/02 09:43:48;;;;;;;11.27;5.20;;;;;;;14.28;56.47;100121.63;1088748;46;20040;-77
2023/01/02 09:45:08;;;;;;;9.17;5.20;;;;;;;14.35;56.04;100122.66;1087149;54;20045;-79
2023/01/02 09:46:18;;;;;;;11.57;4.75;;;;;;;14.43;56.48;100138.81;1087222;54;20268;-80
2023/01/02 09:47:28;;;;;;;8.60;5.10;;;;;;;14.45;56.58;100135.94;1089191;39;20738;-80
2023/01/02 09:48:34;;;;;;;10.73;5.22;;;;;;;14.57;56.61;100131.06;1087237;54;20034;-79
2023/01/02 09:49:45;;;;;;;9.80;5.00;;;;;;;14.74;55.99;100124.69;1087239;54;20886;-79
2023/01/02 09:50:48;;;;;;;9.07;5.22;;;;;;;14.79;55.71;100122.34;1087252;54;20034;-78
2023/01/02 09:51:53;;;;;;;9.35;5.20;;;;;;;14.81;55.66;100127.53;1087160;54;20826;-81
2023/01/02 09:53:03;;;;;;;11.43;5.60;;;;;;;14.82;55.84;100123.84;1087331;54;20039;-81
2023/01/02 09:54:15;;;;;;;12.63;5.28;;;;;;;14.47;55.95;100124.00;1087394;54;20045;-80
2023/01/02 09:55:34;;;;;;;10.40;5.15;;;;;;;14.34;55.77;100126.38;1087278;54;20038;-78
2023/01/02 09:56:42;;;;;;;10.80;5.07;;;;;;;14.35;55.84;100128.06;1087158;54;20035;-78
2023/01/02 09:57:50;;;;;;;12.77;5.30;;;;;;;14.40;55.76;100130.22;1087267;54;20116;-79
2023/01/02 09:58:58;;;;;;;10.20;4.90;;;;;;;14.46;55.40;100133.06;1087323;54;20064;-78
2023/01/02 10:00:08;;;;;;;10.48;5.35;;;;;;;14.47;55.02;100140.13;1087309;54;20030;-78
2023/01/02 10:01:26;;;;;;;12.95;4.68;;;;;;;14.37;55.16;100141.31;1087183;54;20034;-79
2023/01/02 10:02:49;;;;;;;10.57;4.88;;;;;;;14.44;54.78;100145.88;1087340;54;20860;-79
2023/01/02 10:03:58;;;;;;;9.95;3.83;;;;;;;14.52;54.26;100147.69;1087327;54;20027;-81
2023/01/02 10:05:16;;;;;;;9.02;4.53;;;;;;;14.58;53.76;100148.88;1087240;54;20034;-77
2023/01/02 10:06:26;;;;;;;8.68;4.55;;;;;;;14.71;53.64;100148.41;1087178;54;20069;-79
2023/01/02 12:11:00;;;;;;;7.82;2.63;;;;;;;16.60;42.86;100144.03;1087943;54;20014;-86
2023/01/02 12:12:23;;;;;;;9.95;2.85;;;;;;;16.57;42.52;100146.25;1087855;54;20042;-85
2023/01/02 12:13:53;;;;;;;10.77;2.40;;;;;;;16.49;42.53;100166.03;1087757;54;20041;-83
2023/01/02 12:15:27;;;;;;;8.30;2.67;;;;;;;16.53;42.56;100161.97;1089387;47;20111;-84
2023/01/02 12:18:32;;;;;;;8.90;2.88;;;;;;;16.57;42.83;100163.28;1088583;47;20050;-83
2023/01/02 12:20:27;;;;;;;6.95;2.30;;;;;;;16.50;42.71;100154.22;1087570;54;20062;-85
2023/01/02 12:23:55;;;;;;;14.63;3.20;;;;;;;16.51;42.87;100154.03;1087050;54;20026;-82
2023/01/02 12:27:52;;;;;;;7.63;2.38;;;;;;;16.71;43.04;100150.84;1087117;54;20014;-85
2023/01/02 12:31:37;;;;;;;11.45;2.92;;;;;;;16.60;43.15;100135.06;1087079;54;20065;-86
2023/01/02 14:02:19;;;;;;;10.73;2.55;;;;;;;15.99;48.39;100222.16;1087615;54;20034;-83
2023/01/02 14:06:04;;;;;;;6.90;1.95;;;;;;;16.05;48.17;100222.31;1087122;54;20034;-82
2023/01/02 14:07:48;;;;;;;10.30;2.75;;;;;;;15.95;48.84;100224.38;1087371;54;20018;-84
2023/01/02 14:11:42;;;;;;;8.30;2.53;;;;;;;15.78;49.30;100225.41;1087256;54;20829;-81
2023/01/02 16:43:34;;;;;;;13.27;3.60;;;;;;;13.87;57.36;100407.25;1087264;54;20395;-81
2023/01/02 16:44:41;;;;;;;10.95;3.17;;;;;;;14.04;56.72;100402.84;1087075;54;20038;-82
2023/01/02 16:47:54;;;;;;;9.48;3.35;;;;;;;13.98;57.10;100400.81;1088192;39;20624;-79
2023/01/02 16:49:04;;;;;;;7.57;2.97;;;;;;;13.97;57.08;100409.88;1087102;54;20065;-82
2023/01/02 16:50:29;;;;;;;8.23;2.95;;;;;;;14.01;57.11;100408.53;1088016;46;20034;-81
2023/01/02 16:51:34;;;;;;;7.07;2.72;;;;;;;14.11;56.76;100414.66;1087035;54;20030;-78
2023/01/02 16:52:44;;;;;;;6.88;2.63;;;;;;;14.28;56.38;100412.03;1087212;54;20039;-82
2023/01/02 16:55:56;;;;;;;6.78;2.70;;;;;;;14.19;56.54;100428.13;1088756;46;20038;-81
2023/01/02 17:01:48;;;;;;;11.13;2.80;;;;;;;14.03;57.58;100445.00;1087108;54;20030;-82
2023/01/02 17:43:19;;;;;;;;;;;;;;;;;;;;;
2023/01/02 17:53:01;;;;;;;8.95;4.05;;;;;;;12.50;73.45;100564.66;1088165;54;20030;-82
2023/01/02 18:45:29;;;;;;;7.53;2.47;;;;;;;11.81;75.93;100657.56;1088780;54;20034;-81
2023/01/02 18:46:52;;;;;;;6.40;2.55;;;;;;;11.80;75.41;100654.06;1090673;46;20058;-82
2023/01/02 18:48:35;;;;;;;;;;;;;;;;;;;;;
2023/01/02 18:49:45;;;;;;;6.15;1.95;;;;;;;11.83;74.45;100669.00;1089312;54;20030;-83
2023/01/02 18:51:04;;;;;;;6.28;2.42;;;;;;;11.64;74.56;100670.66;1089243;54;20443;-82
2023/01/02 18:52:23;;;;;;;6.38;2.40;;;;;;;11.77;74.65;100669.56;1089167;54;20037;-82
2023/01/02 18:53:58;;;;;;;7.00;2.28;;;;;;;11.43;74.86;100681.44;1089073;54;20041;-82
2023/01/02 18:55:15;;;;;;;4.18;2.13;;;;;;;11.55;74.50;100676.81;1089145;54;20102;-82
2023/01/02 18:59:06;;;;;;;4.20;1.67;;;;;;;11.85;73.35;100681.25;1088840;38;20863;-84
2023/01/02 19:00:23;;;;;;;3.67;1.50;;;;;;;11.73;73.50;100678.84;1089162;54;21100;-81
2023/01/02 19:01:33;;;;;;;3.35;1.42;;;;;;;11.78;72.97;100682.81;1089177;54;20037;-80
2023/01/02 19:02:45;;;;;;;5.17;1.57;;;;;;;11.84;72.90;100682.28;1089104;54;20792;-81
2023/01/02 19:03:48;;;;;;;6.63;1.63;;;;;;;11.69;73.35;100683.63;1089136;54;20278;-80
2023/01/02 19:04:53;;;;;;;4.10;1.52;;;;;;;11.78;73.06;100682.81;1089136;54;20038;-82
2023/01/02 19:05:55;;;;;;;4.82;1.83;;;;;;;11.60;73.39;100682.63;1089148;54;20096;-82
2023/01/02 19:07:16;;;;;;;4.30;1.45;;;;;;;11.72;73.52;100683.38;1089082;54;20041;-81
2023/01/02 19:08:22;;;;;;;4.28;1.77;;;;;;;11.76;73.09;100686.63;1088990;54;20094;-82
2023/01/02 19:09:51;;;;;;;;;;;;;;;;;;;;;
2023/01/02 19:13:00;;;;;;;5.05;1.60;;;;;;;11.82;73.33;100692.28;1088671;54;20050;-82
2023/01/02 19:13:42;;;;;;;6.93;2.22;;;;;;;11.67;73.46;100699.84;1089574;38;20222;-83
2023/01/02 19:15:04;;;;;;;3.83;1.50;;;;;;;11.76;73.41;100700.00;1089110;54;20034;-81
2023/01/02 19:19:05;;;;;;;5.70;2.35;;;;;;;11.59;74.68;100729.13;1088279;54;20034;-80
2023/01/02 19:20:48;;;;;;;5.15;2.03;;;;;;;11.35;75.63;100724.09;1089144;54;20026;-80
2023/01/02 19:23:36;;;;;;;4.38;1.65;;;;;;;11.35;75.66;100724.94;1089173;54;20030;-80
2023/01/02 19:25:15;;;;;;;4.32;1.70;;;;;;;11.54;74.70;100717.97;1089142;54;20036;-80
2023/01/02 19:26:58;;;;;;;4.18;1.80;;;;;;;11.33;75.45;100715.34;1090081;38;20699;-86
2023/01/02 19:28:28;;;;;;;6.03;2.30;;;;;;;11.17;75.94;100721.16;1089059;54;20022;-80
2023/01/02 19:30:26;;;;;;;5.03;2.03;;;;;;;11.32;75.65;100725.22;1088756;54;20031;-84
2023/01/02 19:31:56;;;;;;;5.18;1.55;;;;;;;11.34;74.77;100727.75;1088705;54;20034;-79
2023/01/02 19:32:58;;;;;;;4.05;1.77;;;;;;;11.24;75.16;100738.41;1088753;54;20034;-82
2023/01/02 19:36:42;;;;;;;;;;;;;;;;;;;;;
2023/01/02 19:44:30;;;;;;;3.97;0.90;;;;;;;10.79;74.81;100760.06;1088660;54;20034;-83
2023/01/02 19:45:50;;;;;;;3.58;1.15;;;;;;;10.71;74.61;100755.38;1088730;54;20059;-82
2023/01/02 19:54:23;;;;;;;;;;;;;;;;;;;;;
2023/01/02 19:55:54;;;;;;;3.55;1.40;;;;;;;10.68;74.52;100769.81;1087666;54;20031;-83
2023/01/02 19:57:53;;;;;;;3.70;1.23;;;;;;;10.70;74.32;100778.56;1087756;54;20316;-83
2023/01/02 19:59:00;;;;;;;2.15;0.77;;;;;;;10.66;74.52;100777.16;1087621;54;20034;-82
2023/01/02 20:00:33;;;;;;;3.47;1.20;;;;;;;10.74;74.27;100785.38;1088491;46;20063;-81
2023/01/02 20:02:01;;;;;;;2.67;1.00;;;;;;;10.95;73.50;100786.38;1087359;54;20054;-82
2023/01/02 20:03:03;;;;;;;3.63;1.27;;;;;;;10.76;74.09;100783.44;1087184;54;20034;-81
2023/01/02 20:04:26;;;;;;;2.67;1.30;;;;;;;10.73;74.28;100775.66;1087339;54;20098;-84
2023/01/02 20:05:35;;;;;;;2.90;1.05;;;;;;;10.67;74.62;100773.50;1087389;54;20083;-81
2023/01/02 20:06:43;;;;;;;3.47;1.20;;;;;;;10.74;74.33;100769.34;1087453;54;20041;-81
2023/01/02 20:10:17;;;;;;;2.92;0.98;;;;;;;10.71;74.07;100785.63;1087363;54;20037;-81
2023/01/02 20:17:03;;;;;;;4.10;1.20;;;;;;;10.85;73.52;100805.03;1086619;54;20027;-82
2023/01/02 20:18:16;;;;;;;3.80;1.60;;;;;;;10.70;73.33;100802.63;1086775;54;20041;-82
2023/01/02 20:25:25;;;;;;;4.25;1.85;;;;;;;10.81;73.04;100806.25;1089312;31;20817;-84
2023/01/02 20:26:27;;;;;;;5.35;2.83;;;;;;;10.83;73.07;100805.13;1088210;46;20026;-81
2023/01/02 20:27:31;;;;;;;5.53;2.90;;;;;;;10.95;72.63;100807.78;1087255;54;20034;-82
2023/01/02 20:28:39;;;;;;;6.80;3.83;;;;;;;10.83;72.82;100810.50;1087602;54;20327;-81
2023/01/02 20:29:55;;;;;;;6.60;4.00;;;;;;;11.03;72.22;100810.66;1089386;46;20426;-81
2023/01/02 20:31:10;;;;;;;5.10;3.28;;;;;;;11.08;72.04;100811.97;1087628;54;20025;-80
2023/01/02 20:34:05;;;;;;;5.13;2.13;;;;;;;10.74;72.94;100827.31;1087660;54;20031;-81
2023/01/02 20:35:10;;;;;;;3.10;1.30;;;;;;;10.68;73.18;100817.94;1087539;54;20060;-81
2023/01/02 20:36:12;;;;;;;3.85;1.50;;;;;;;10.85;72.76;100818.41;1087855;46;20039;-82
2023/01/02 20:37:19;;;;;;;3.70;1.30;;;;;;;11.04;72.11;100818.56;1087633;54;20041;-81
2023/01/02 20:38:21;;;;;;;3.42;1.65;;;;;;;10.96;72.27;100818.34;1087585;54;20038;-83
2023/01/02 20:39:26;;;;;;;3.40;1.55;;;;;;;10.76;72.63;100814.66;1087700;54;20034;-81
2023/01/02 20:40:30;;;;;;;3.00;1.20;;;;;;;10.91;72.62;100825.91;1088457;46;20046;-81
2023/01/02 20:41:31;;;;;;;5.28;1.30;;;;;;;11.07;71.81;100823.63;1087577;54;20022;-81
2023/01/02 20:42:36;;;;;;;2.05;0.80;;;;;;;11.04;71.71;100826.59;1087610;54;20019;-79
2023/01/02 20:43:40;;;;;;;3.13;1.10;;;;;;;10.98;72.04;100828.94;1087560;54;20034;-81
2023/01/02 20:44:42;;;;;;;3.97;1.10;;;;;;;11.07;71.82;100826.31;1087607;54;20018;-82
2023/01/02 20:45:46;;;;;;;2.60;0.90;;;;;;;11.26;71.17;100831.94;1088457;46;20722;-81
2023/01/02 20:46:48;;;;;;;3.40;1.05;;;;;;;11.33;70.94;100831.31;1087614;54;20038;-82
2023/01/02 20:47:52;;;;;;;2.45;0.98;;;;;;;11.22;71.27;100836.72;1087566;54;20037;-81
2023/01/02 20:48:54;;;;;;;3.40;1.10;;;;;;;11.16;71.34;100848.78;1087667;54;20050;-81
2023/01/02 21:33:10;;;;;;;2.15;0.80;;;;;;;11.53;67.56;100867.09;1088775;54;20360;-82
2023/01/02 21:34:14;;;;;;;2.15;0.70;;;;;;;11.35;68.36;100876.69;1089689;54;20033;-80
2023/01/02 21:35:16;;;;;;;2.30;0.90;;;;;;;11.34;68.36;100877.66;1089617;54;20018;-83
2023/01/02 21:36:20;;;;;;;2.70;0.70;;;;;;;11.05;69.11;100889.81;1089696;54;20764;-81
2023/01/02 21:37:35;;;;;;;2.83;1.00;;;;;;;10.92;69.68;100883.78;1089783;54;20030;-82
2023/01/02 21:38:40;;;;;;;2.80;0.90;;;;;;;10.69;70.35;100889.19;1089971;54;20034;-80
2023/01/02 21:39:43;;;;;;;2.67;0.95;;;;;;;10.69;70.38;100883.84;1089925;54;20018;-81
2023/01/02 21:40:48;;;;;;;2.83;1.10;;;;;;;10.66;70.65;100878.75;1089913;54;20034;-82
2023/01/02 21:43:09;;;;;;;3.20;1.08;;;;;;;10.52;70.98;100890.56;1089719;54;20030;-82
2023/01/02 21:44:11;;;;;;;2.40;0.90;;;;;;;10.44;71.40;100893.84;1089592;54;20098;-82
2023/01/02 21:45:15;;;;;;;3.60;1.42;;;;;;;10.38;71.42;100886.34;1089583;54;20057;-79
2023/01/02 21:46:16;;;;;;;3.33;1.30;;;;;;;10.52;71.10;100889.72;1089572;54;20041;-80
2023/01/02 21:47:21;;;;;;;3.53;1.10;;;;;;;10.50;71.06;100895.19;1089683;54;20030;-80
2023/01/02 21:48:36;;;;;;;2.45;0.90;;;;;;;10.36;71.38;100896.25;1089547;54;20034;-80
2023/01/02 21:49:38;;;;;;;4.65;1.30;;;;;;;10.39;71.55;100901.38;1089546;54;20034;-80
2023/01/02 21:50:42;;;;;;;3.25;1.00;;;;;;;10.40;71.32;100902.25;1089504;54;20034;-80
2023/01/02 21:51:46;;;;;;;2.45;0.90;;;;;;;10.34;71.63;100900.03;1089470;54;20046;-80
2023/01/02 21:52:50;;;;;;;2.95;1.02;;;;;;;10.45;71.25;100897.38;1089497;54;20038;-78
2023/01/02 21:53:52;;;;;;;2.88;1.30;;;;;;;10.23;72.25;100892.84;1089383;54;20385;-82
2023/01/02 21:55:00;;;;;;;2.10;0.85;;;;;;;10.25;72.11;100899.78;1090595;46;20041;-80
2023/01/02 21:56:01;;;;;;;2.38;0.90;;;;;;;10.29;72.06;100898.56;1089491;54;20023;-79
2023/01/02 21:57:05;;;;;;;4.50;1.23;;;;;;;10.23;72.09;100898.19;1089366;54;20045;-81
2023/01/02 21:58:10;;;;;;;3.20;1.20;;;;;;;10.15;72.75;100897.00;1089442;54;20046;-79
2023/01/02 21:59:15;;;;;;;2.50;0.93;;;;;;;10.29;72.31;100903.91;1090085;46;20034;-79
2023/01/02 22:00:19;;;;;;;2.90;1.20;;;;;;;10.33;71.91;100915.22;1089461;54;20035;-79
2023/01/02 22:01:24;;;;;;;4.32;1.20;;;;;;;10.27;72.00;100910.34;1093661;38;20342;-80
2023/01/02 22:02:25;;;;;;;3.78;1.40;;;;;;;10.25;72.41;100914.97;1089248;54;20049;-80
2023/01/02 22:03:29;;;;;;;5.20;1.40;;;;;;;10.24;72.67;100910.59;1090085;46;20050;-80
2023/01/02 22:04:34;;;;;;;3.40;1.40;;;;;;;10.36;72.41;100909.63;1092213;46;20030;-81
2023/01/02 22:05:38;;;;;;;3.65;1.58;;;;;;;10.19;72.85;100902.09;1089426;54;20034;-80
2023/01/02 22:06:40;;;;;;;3.88;1.60;;;;;;;10.27;72.70;100911.19;1089346;54;20050;-81
2023/01/02 22:07:46;;;;;;;4.30;1.65;;;;;;;10.40;72.25;100920.97;1089455;54;20760;-79
2023/01/02 22:08:48;;;;;;;3.45;1.40;;;;;;;10.42;72.28;100909.16;1089507;54;20039;-80
2023/01/02 22:09:52;;;;;;;4.13;1.55;;;;;;;10.37;72.24;100913.13;1089550;54;20049;-80
2023/01/02 22:11:54;;;;;;;3.30;1.60;;;;;;;10.37;72.27;100916.72;1089446;54;20655;-79
2023/01/02 22:12:19;;;;;;;3.50;1.60;;;;;;;10.55;71.68;100913.53;1089266;54;21223;-80
2023/01/02 22:13:24;;;;;;;4.05;1.63;;;;;;;10.41;72.22;100918.16;1089391;54;20034;-79
2023/01/02 22:14:29;;;;;;;3.33;1.67;;;;;;;10.25;72.83;100918.47;1089488;54;20069;-80
2023/01/02 22:15:33;;;;;;;3.45;1.70;;;;;;;10.15;73.12;100913.03;1089410;54;20053;-81
2023/01/02 22:16:38;;;;;;;3.53;1.60;;;;;;;10.17;72.77;100909.38;1089316;54;20062;-80
2023/01/02 22:17:43;;;;;;;3.40;1.77;;;;;;;10.13;73.26;100912.28;1089415;54;20065;-80
2023/01/02 22:18:51;;;;;;;4.20;2.08;;;;;;;10.15;73.19;100920.22;1089458;54;20038;-81
2023/01/02 22:19:58;;;;;;;3.80;1.75;;;;;;;10.15;73.26;100926.38;1089540;54;20034;-81
2023/01/02 22:20:59;;;;;;;3.83;1.88;;;;;;;10.17;73.37;100922.75;1089435;54;20034;-81
2023/01/02 22:22:04;;;;;;;3.95;1.75;;;;;;;10.15;73.58;100931.72;1089405;54;20049;-79
2023/01/02 22:23:08;;;;;;;3.70;1.90;;;;;;;10.18;73.35;100929.78;1089415;54;20115;-81
2023/01/02 22:24:11;;;;;;;3.72;1.80;;;;;;;10.26;73.00;100930.03;1089399;54;20034;-80
2023/01/02 22:25:15;;;;;;;4.30;1.75;;;;;;;10.25;72.98;100931.84;1091299;46;20094;-79
2023/01/02 22:26:19;;;;;;;3.65;1.80;;;;;;;10.15;73.20;100934.41;1089431;54;20022;-80
2023/01/02 22:27:24;;;;;;;4.35;2.10;;;;;;;10.07;73.38;100939.50;1089728;46;20039;-80
2023/01/02 22:28:26;;;;;;;4.05;1.80;;;;;;;10.04;73.58;100944.22;1087784;54;20045;-81
2023/01/02 22:29:30;;;;;;;5.68;1.80;;;;;;;10.03;73.38;100934.50;1087972;54;20031;-79
2023/01/02 22:30:36;;;;;;;3.95;1.83;;;;;;;10.23;73.21;100938.28;1087954;54;20038;-82
2023/01/02 22:31:38;;;;;;;3.58;1.92;;;;;;;10.21;72.65;100932.19;1088109;54;20042;-82
2023/01/02 22:32:42;;;;;;;3.97;1.88;;;;;;;10.17;73.07;100936.09;1088452;39;20578;-81
2023/01/02 22:33:44;;;;;;;2.92;1.50;;;;;;;10.11;73.22;100946.28;1087532;54;20872;-81